横田飛行場の過去48時間の天気

横田飛行場 (Yokota)

現在時刻: 9/22 11:18 JST (9/22 02:18 UTC) 以下の時間は現地時間です。

過去48時間のMETAR気象情報
時間 風向 風速(m/s) 視程 気温(℃) 湿度(%) 気圧(hPa) 天気現象
22 10:56 2 10km以上 24.9 66 1019.1
22 09:56 北東 3 10km以上 23.8 66 1019.5
22 09:41 北北西 2 10km以上 24 69 1019.8
22 08:56 北北東 3 10km以上 22.9 74 1019.8
22 07:56 北東 3 10km以上 21.6 78 1019.8
22 06:56 3 10km以上 20 82 1020.2
22 05:56 北西 2 10km以上 18.1 86 1019.9
22 04:56 静穏 0 - - - 1020
22 03:56 静穏 0 10km以上 18.6 87 1019.1
22 02:56 静穏 0 10km以上 19.3 84 1018.8
22 01:56 西北西 2 10km以上 19.8 84 1019.1
22 00:56 北北西 2 10km以上 19.6 84 1018.5
21 23:56 西北西 2 10km以上 19.7 84 1019.1
21 22:56 西 3 10km以上 19.8 84 1019.1
21 21:56 静穏 0 10km以上 19.8 84 1018.2
21 20:56 静穏 0 10km以上 20.7 82 1018.5
21 19:56 静穏 0 10km以上 21 79 1017.5
21 18:56 西北西 3 10km以上 22.2 73 1016.8
21 17:56 静穏 0 10km以上 22.8 67 1016.1
21 16:56 3 10km以上 23.6 63 1015.7
21 15:56 2 10km以上 24.2 62 1015.4
21 14:56 東南東 2 10km以上 24.2 65 1015.4
21 13:56 南南東 3 10km以上 24.9 67 1015.4
21 12:56 東北東 4 10km以上 24 71 1015.7
21 11:56 北東 3 10km以上 23.7 73 1016.4
21 10:56 東南東 2 10km以上 23 77 1016.4
21 09:56 静穏 0 10km以上 21.9 79 1016.1
21 08:56 静穏 0 10km以上 21 87 1016.5
21 07:56 静穏 0 10km以上 20.5 85 1015.8
21 06:56 西北西 3 10km以上 19.7 90 1016.9
21 05:56 静穏 0 10km以上 19.3 93 1015.2
21 04:56 静穏 0 10km以上 19.7 91 1015.1
RJTY 220156Z AUTO 01004KT 10SM SCT038 25/18 A3010 RMK AO2 SLP191 T02490181 FZRANO $
RJTY 220056Z AUTO 04005KT 10SM BKN032 24/17 A3011 RMK AO2 SLP195 T02380170 FZRANO $
RJTY 220041Z AUTO 34003KT 10SM BKN028 24/18 A3012 RMK AO2 BKN V SCT SLP198 FZRANO $
RJTY 212356Z AUTO 02005KT 10SM CLR 23/18 A3012 RMK AO2 SLP198 T02290180 10229 20187 FZRANO $
RJTY 212256Z AUTO 04005KT 10SM CLR 22/18 A3012 RMK AO2 SLP198 T02160176 FZRANO $
RJTY 212156Z 35006KT 10SM CLR 20/17 A3013 RMK AO2A SLP202 T02000168 FZRANO $
RJTY 212056Z 32004KT 10SM CLR 18/16 A3012 RMK AO2A SLP199 T01810157 52011 FZRANO $
RJTY 211956Z AUTO 00000KT M M M M A3012 RMK AO2 SLPNO ALSTG ESTMD RVRNO FZRANO $
RJTY 211856Z AUTO 00000KT 10SM CLR 19/16 A3010 RMK AO2 SLP191 T01860164 FZRANO $
RJTY 211756Z AUTO 00000KT 10SM CLR 19/17 A3009 RMK AO2 SLP188 T01930165 10207 20186 55002 FZRANO $
RJTY 211656Z AUTO 29004KT 10SM OVC075 20/17 A3010 RMK AO2 SLP191 T01980170 FZRANO $
RJTY 211556Z AUTO 34003KT 10SM BKN070 20/17 A3008 RMK AO2 SLP185 T01960168 FZRANO $
RJTY 211456Z AUTO 29004KT 10SM FEW038 BKN070 20/17 A3010 RMK AO2 SLP191 T01970169 402530186 53006 FZRANO $
RJTY 211356Z AUTO 28005KT 10SM FEW044 20/17 A3010 RMK AO2 SLP191 T01980170 FZRANO $
RJTY 211256Z AUTO 00000KT 10SM CLR 20/17 A3007 RMK AO2 SLP182 T01980170 FZRANO $
RJTY 211156Z AUTO 00000KT 10SM SCT065 SCT090 21/18 A3008 RMK AO2 SLP185 T02070175 10245 20204 52023 FZRANO $
RJTY 211056Z AUTO 00000KT 10SM FEW065 SCT085 21/17 A3005 RMK AO2 SLP175 T02100172 FZRANO $
RJTY 210956Z AUTO 29005KT 10SM FEW060 22/17 A3003 RMK AO2 SLP168 T02220171 FZRANO $
RJTY 210856Z AUTO 00000KT 10SM BKN090 23/16 A3001 RMK AO2 SLP161 T02280163 53005 FZRANO $
RJTY 210756Z AUTO 09006KT 10SM BKN055 24/16 A3000 RMK AO2 SLP157 T02360161 FZRANO $
RJTY 210656Z AUTO 08003KT 10SM FEW050 24/16 A2999 RMK AO2 SLP154 T02420164 FZRANO $
RJTY 210556Z AUTO 11004KT 10SM SCT045 BKN055 24/17 A2999 RMK AO2 SLP154 T02420172 10253 20211 56009 FZRANO $
RJTY 210456Z AUTO 15006KT 10SM FEW037 25/18 A2999 RMK AO2 SLP154 T02490183 FZRANO $
RJTY 210356Z AUTO 07007KT 10SM SCT039 24/18 A3000 RMK AO2 SLP157 T02400184 FZRANO $
RJTY 210256Z AUTO 05005KT 10SM BKN043 24/19 A3002 RMK AO2 SLP164 T02370185 55002 FZRANO $
RJTY 210156Z AUTO 11004KT 10SM FEW018 FEW210 23/19 A3002 RMK AO2 SLP164 T02300187 FZRANO $
RJTY 210056Z AUTO 00000KT 10SM CLR 22/18 A3001 RMK AO2 SLP161 T02190181 FZRANO $
RJTY 202356Z AUTO 00000KT 10SM FEW042 21/19 A3002 RMK AO2 SLP165 70002 T02100187 10210 20191 50014 FZRANO $
RJTY 202256Z AUTO 00000KT 10SM CLR 21/18 A3000 RMK AO2 SLP158 T02050179 FZRANO $
RJTY 202156Z AUTO 29005KT 10SM FEW060 20/18 A3003 RMK AO2 SLP169 T01970180 FZRANO $
RJTY 202056Z AUTO 00000KT 10SM SCT049 BKN055 19/18 A2998 RMK AO2 SLP152 T01930181 50007 FZRANO $
RJTY 201956Z AUTO 00000KT 10SM FEW070 20/18 A2998 RMK AO2 SLP151 T01970182 FZRANO $